Tinsdal — V2AJ2 — position and weather

sailwx.info

Track history (hours):
 
Tides and Currents Weather Stations Pressure Air Temp Water Temp Dewpoint Dewpoint Depression Visibility Wind Speed Wind Dir Waves Ship Positions

Tinsdal

Last reported at 2018-Jun-21 04:05 UTC. Time now 2018-Jun-23 10:05 UTC.
Position N 39°35' W 009°37'.

Length 90 m; draft 3.9 m.

Type: Ship. MMSI: 305573000.

Date/timePositionNaut miles runAvg speedWind from/ knotsBaromVisibWave heightAir tempDewpointWater temp
2018-Jun-21 04:05N 39°35' W 009°37'310.1
2018-Jun-21 03:50N 39°33' W 009°40'17 9.6
2018-Jun-21 02:03N 39°16' W 009°46'210.0
2018-Jun-21 01:50N 39°14' W 009°47'310.1
2018-Jun-21 01:30N 39°11' W 009°47'5 9.9
2018-Jun-21 01:00N 39°06' W 009°48'5 9.6
2018-Jun-21 00:30N 39°01' W 009°49'5 9.7
2018-Jun-21 00:00N 38°57' W 009°50'510.0
2018-Jun-20 23:30N 38°52' W 009°51'5 9.9
2018-Jun-20 23:00N 38°47' W 009°51'5 9.9
2018-Jun-20 22:30N 38°42' W 009°51'5 9.6
2018-Jun-20 22:00N 38°37' W 009°48'5 9.1
2018-Jun-20 21:30N 38°36' W 009°43'5 9.9
2018-Jun-20 21:00N 38°36' W 009°37'510.4
2018-Jun-20 20:30N 38°36' W 009°30'5 9.9
2018-Jun-20 20:00N 38°39' W 009°24'2 3.2
2018-Jun-20 19:28N 38°40' W 009°24'0 0.2
2018-Jun-20 18:58N 38°40' W 009°23'0 0.1
2018-Jun-20 18:28N 38°40' W 009°23'0 0.0
2018-Jun-20 17:58N 38°40' W 009°23'0 0.0
2018-Jun-20 17:28N 38°40' W 009°23'0 0.1
2018-Jun-20 16:58N 38°40' W 009°23'0 0.0
2018-Jun-20 16:28N 38°40' W 009°23'0 0.0
2018-Jun-20 15:58N 38°40' W 009°23'0 0.0
2018-Jun-20 15:28N 38°40' W 009°23'0 0.0
2018-Jun-20 14:58N 38°40' W 009°23'0 0.0
2018-Jun-20 14:28N 38°40' W 009°23'0 0.1
2018-Jun-20 13:58N 38°40' W 009°23'0 0.1
2018-Jun-20 13:28N 38°40' W 009°23'0 0.1
2018-Jun-20 12:58N 38°40' W 009°23'0 0.0
2018-Jun-20 12:28N 38°40' W 009°23'0 0.0
2018-Jun-20 11:58N 38°40' W 009°23'0 0.1
2018-Jun-20 11:28N 38°40' W 009°23'0 0.0
2018-Jun-20 10:58N 38°40' W 009°24'0 0.1
2018-Jun-20 10:28N 38°40' W 009°23'0 0.0
2018-Jun-20 09:58N 38°40' W 009°23'0 0.0
2018-Jun-20 09:28N 38°40' W 009°23'0 0.0
2018-Jun-20 08:58N 38°40' W 009°23'0 0.0
2018-Jun-20 08:28N 38°40' W 009°23'0 0.1
2018-Jun-20 07:58N 38°40' W 009°23'0 0.4
2018-Jun-20 07:31N 38°40' W 009°23'3 5.9
2018-Jun-20 07:00N 38°37' W 009°22'5 9.7
2018-Jun-20 06:30N 38°41' W 009°18'4 7.8
2018-Jun-20 06:00N 38°41' W 009°13'4 8.9
2018-Jun-20 05:30N 38°41' W 009°07'2 1.4
2018-Jun-20 03:45N 38°40' W 009°04'0 0.0
2018-Jun-20 02:33N 38°40' W 009°04'0 0.0
2018-Jun-20 01:27N 38°40' W 009°04'0 0.0
2018-Jun-19 22:48N 38°40' W 009°04'0 0.0
2018-Jun-19 16:36N 38°40' W 009°04'0 0.0
2018-Jun-19 16:24N 38°40' W 009°04'0 0.0
2018-Jun-19 15:54N 38°40' W 009°04'0 0.0
2018-Jun-19 13:36N 38°40' W 009°04'0 0.0
2018-Jun-19 13:24N 38°40' W 009°04'0 0.0
2018-Jun-19 06:48N 38°40' W 009°04'0 0.0
2018-Jun-19 06:20N 38°40' W 009°04'0 1.1
2018-Jun-19 06:00N 38°40' W 009°05'3 5.9
2018-Jun-19 05:30N 38°41' W 009°08'510.6
2018-Jun-19 05:00N 38°41' W 009°15'611.7
2018-Jun-19 04:31N 38°38' W 009°21'3 5.1
2018-Jun-19 04:01N 38°38' W 009°25'3 4.9
2018-Jun-19 03:30N 38°40' W 009°24'0 0.2
2018-Jun-19 03:00N 38°40' W 009°23'0 0.1
2018-Jun-19 02:30N 38°40' W 009°24'0 0.0
2018-Jun-19 02:00N 38°40' W 009°24'0 0.0
2018-Jun-19 01:30N 38°40' W 009°24'0 0.0
2018-Jun-19 01:00N 38°40' W 009°24'0 0.0
2018-Jun-19 00:30N 38°40' W 009°24'0 0.0
2018-Jun-19 00:00N 38°40' W 009°24'0 0.0
2018-Jun-18 23:30N 38°40' W 009°24'0 0.0
2018-Jun-18 22:57N 38°40' W 009°24'0 0.0
2018-Jun-18 22:27N 38°40' W 009°24'0 0.0
2018-Jun-18 21:54N 38°40' W 009°24'0 0.1
2018-Jun-18 21:27N 38°40' W 009°24'0 0.1
2018-Jun-18 21:00N 38°40' W 009°24'0 0.2
2018-Jun-18 20:30N 38°40' W 009°23'0 0.1
2018-Jun-18 20:00N 38°40' W 009°23'0 0.0
2018-Jun-18 19:30N 38°40' W 009°23'0 0.0
2018-Jun-18 19:00N 38°40' W 009°23'0 0.0
2018-Jun-18 18:30N 38°40' W 009°23'0 0.0
2018-Jun-18 18:00N 38°40' W 009°23'0 0.0
2018-Jun-18 17:30N 38°40' W 009°23'0 0.0
2018-Jun-18 17:00N 38°40' W 009°23'0 0.0
2018-Jun-18 16:30N 38°40' W 009°23'0 0.0
2018-Jun-18 16:00N 38°40' W 009°23'0 0.0
2018-Jun-18 15:30N 38°40' W 009°23'0 0.0
2018-Jun-18 15:00N 38°40' W 009°23'0 0.0
2018-Jun-18 14:30N 38°40' W 009°23'0 0.0
2018-Jun-18 14:00N 38°40' W 009°23'0 0.0
2018-Jun-18 13:30N 38°40' W 009°23'0 0.0
2018-Jun-18 13:00N 38°40' W 009°23'0 0.0
2018-Jun-18 12:30N 38°40' W 009°23'0 0.1
2018-Jun-18 12:00N 38°40' W 009°24'0 0.1
2018-Jun-18 11:30N 38°40' W 009°24'0 0.1
2018-Jun-18 11:00N 38°40' W 009°24'0 0.0
2018-Jun-18 10:30N 38°40' W 009°24'0 0.0
2018-Jun-18 10:00N 38°40' W 009°24'0 0.1
2018-Jun-18 09:30N 38°40' W 009°23'0 0.0
2018-Jun-18 08:57N 38°40' W 009°23'0 0.1
2018-Jun-18 08:30N 38°40' W 009°23'0 0.0
2018-Jun-18 08:00N 38°40' W 009°23'0 0.0
2018-Jun-18 07:30N 38°40' W 009°23'0 0.0
2018-Jun-18 07:00N 38°40' W 009°23'0 0.0
2018-Jun-18 06:30N 38°40' W 009°23'0 0.0
2018-Jun-18 06:00N 38°40' W 009°23'0 0.0
2018-Jun-18 05:30N 38°40' W 009°23'0 0.0
2018-Jun-18 05:00N 38°40' W 009°23'0 0.0
2018-Jun-18 04:30N 38°40' W 009°23'0 0.0
2018-Jun-18 04:00N 38°40' W 009°23'0 0.0
2018-Jun-18 03:30N 38°40' W 009°24'0 0.1
2018-Jun-18 03:00N 38°40' W 009°24'0 0.0
2018-Jun-18 02:30N 38°40' W 009°24'0 0.0
2018-Jun-18 02:00N 38°40' W 009°24'0 0.0
2018-Jun-18 01:30N 38°40' W 009°24'0 0.1
2018-Jun-18 01:00N 38°40' W 009°24'0 0.0
2018-Jun-18 00:30N 38°40' W 009°24'0 0.0
2018-Jun-18 00:00N 38°40' W 009°24'0 0.0
2018-Jun-17 23:30N 38°40' W 009°24'0 0.0
2018-Jun-17 23:00N 38°40' W 009°24'0 0.0
2018-Jun-17 22:30N 38°40' W 009°24'0 0.0
2018-Jun-17 22:00N 38°40' W 009°24'0 0.0
2018-Jun-17 21:30N 38°40' W 009°24'0 0.0
2018-Jun-17 21:00N 38°40' W 009°24'0 0.0
2018-Jun-17 20:30N 38°40' W 009°24'0 0.0
2018-Jun-17 20:00N 38°40' W 009°24'0 0.0
2018-Jun-17 19:30N 38°40' W 009°24'0 0.0
2018-Jun-17 19:00N 38°40' W 009°23'0 0.1
2018-Jun-17 18:30N 38°40' W 009°23'0 0.2
2018-Jun-17 18:00N 38°40' W 009°23'0 0.0
2018-Jun-17 17:30N 38°40' W 009°23'0 0.0
2018-Jun-17 17:00N 38°40' W 009°23'0 0.0
2018-Jun-17 16:30N 38°40' W 009°23'0 0.0
2018-Jun-17 15:57N 38°40' W 009°23'0 0.0
2018-Jun-17 15:30N 38°40' W 009°23'0 0.0
2018-Jun-17 15:00N 38°40' W 009°23'0 0.0
2018-Jun-17 14:30N 38°40' W 009°23'0 0.1
2018-Jun-17 14:00N 38°40' W 009°23'0 0.0
2018-Jun-17 13:30N 38°40' W 009°23'0 0.0
2018-Jun-17 12:57N 38°40' W 009°23'0 0.0
2018-Jun-17 12:30N 38°40' W 009°23'0 0.0
2018-Jun-17 12:00N 38°40' W 009°23'0 0.0
2018-Jun-17 11:30N 38°40' W 009°23'0 0.0
2018-Jun-17 11:00N 38°40' W 009°23'0 0.0
2018-Jun-17 10:30N 38°40' W 009°23'0 0.0
2018-Jun-17 10:00N 38°40' W 009°23'0 0.0
2018-Jun-17 09:27N 38°40' W 009°23'0 0.0
2018-Jun-17 09:00N 38°40' W 009°23'0 0.0
2018-Jun-17 08:30N 38°40' W 009°23'0 0.0
2018-Jun-17 08:00N 38°40' W 009°23'0 0.0
2018-Jun-17 07:30N 38°40' W 009°23'0 0.0
2018-Jun-17 07:00N 38°40' W 009°23'0 0.0
2018-Jun-17 06:30N 38°40' W 009°23'0 0.0
2018-Jun-17 06:00N 38°40' W 009°23'0 0.0
2018-Jun-17 05:30N 38°40' W 009°23'0 0.0
2018-Jun-17 05:00N 38°40' W 009°23'0 0.0
2018-Jun-17 04:30N 38°40' W 009°23'0 0.1
2018-Jun-17 04:00N 38°40' W 009°23'0 0.0
2018-Jun-17 03:30N 38°40' W 009°23'0 0.0
2018-Jun-17 03:00N 38°40' W 009°23'0 0.0
2018-Jun-17 02:30N 38°40' W 009°23'0 0.1
2018-Jun-17 02:00N 38°40' W 009°23'0 0.0
2018-Jun-17 01:30N 38°40' W 009°23'0 0.0
2018-Jun-17 01:00N 38°40' W 009°23'0 0.0
2018-Jun-17 00:30N 38°40' W 009°23'0 0.0
2018-Jun-17 00:00N 38°40' W 009°23'0 0.0
2018-Jun-16 23:30N 38°40' W 009°23'0 0.0
2018-Jun-16 23:00N 38°40' W 009°23'0 0.0
2018-Jun-16 22:30N 38°40' W 009°24'0 0.0
2018-Jun-16 22:00N 38°40' W 009°24'0 0.0
2018-Jun-16 21:30N 38°40' W 009°24'0 0.0
2018-Jun-16 21:00N 38°40' W 009°24'0 0.0
2018-Jun-16 20:30N 38°40' W 009°24'0 0.0
2018-Jun-16 20:00N 38°40' W 009°24'0 0.0
2018-Jun-16 19:30N 38°40' W 009°24'0 0.0
2018-Jun-16 19:00N 38°40' W 009°23'0 0.0
2018-Jun-16 18:30N 38°40' W 009°23'0 0.0
2018-Jun-16 18:00N 38°40' W 009°23'0 0.0
2018-Jun-16 17:30N 38°40' W 009°23'0 0.0
2018-Jun-16 17:00N 38°40' W 009°23'0 0.0
2018-Jun-16 16:30N 38°40' W 009°23'0 0.0
2018-Jun-16 16:00N 38°40' W 009°23'0 0.0
2018-Jun-16 15:27N 38°40' W 009°23'0 0.0
2018-Jun-16 15:00N 38°40' W 009°23'0 0.0
2018-Jun-16 14:27N 38°40' W 009°23'0 0.0
2018-Jun-16 14:00N 38°40' W 009°23'0 0.0
2018-Jun-16 13:27N 38°40' W 009°23'0 0.0
2018-Jun-16 13:00N 38°40' W 009°23'0 0.0
2018-Jun-16 12:30N 38°40' W 009°23'0 0.0
2018-Jun-16 12:00N 38°40' W 009°23'0 0.0
2018-Jun-16 11:30N 38°40' W 009°23'0 0.0
2018-Jun-16 11:00N 38°40' W 009°23'0 0.0
2018-Jun-16 10:30N 38°40' W 009°23'0 0.0
2018-Jun-16 10:00N 38°40' W 009°23'0 0.0
2018-Jun-16 09:27N 38°40' W 009°23'0 0.0
2018-Jun-16 09:00N 38°40' W 009°23'0 0.0
2018-Jun-16 08:30N 38°40' W 009°23'0 0.0
2018-Jun-16 08:00N 38°40' W 009°23'0 0.0
2018-Jun-16 07:30N 38°40' W 009°24'0 0.0
2018-Jun-16 07:00N 38°40' W 009°23'0 0.0
2018-Jun-16 06:30N 38°40' W 009°23'0 0.0
2018-Jun-16 06:00N 38°40' W 009°23'0 0.0
2018-Jun-16 05:30N 38°40' W 009°23'0 0.0
2018-Jun-16 05:00N 38°40' W 009°23'0 0.0
2018-Jun-16 04:30N 38°40' W 009°23'0 0.0
2018-Jun-16 04:00N 38°40' W 009°23'0 0.0
2018-Jun-16 03:30N 38°40' W 009°23'0 0.0
2018-Jun-16 03:00N 38°40' W 009°23'0 0.0
2018-Jun-16 02:30N 38°40' W 009°23'0 0.1
2018-Jun-16 02:00N 38°40' W 009°23'0 0.0
2018-Jun-16 01:30N 38°40' W 009°23'0 0.0
2018-Jun-16 01:00N 38°40' W 009°23'0 0.0
2018-Jun-16 00:27N 38°40' W 009°23'0 0.0
2018-Jun-16 00:00N 38°40' W 009°23'0 0.0
2018-Jun-15 23:30N 38°40' W 009°23'0 0.0
2018-Jun-15 22:57N 38°40' W 009°23'0 0.0
2018-Jun-15 22:30N 38°40' W 009°23'0 0.0
2018-Jun-15 22:00N 38°40' W 009°23'0 0.0
2018-Jun-15 21:30N 38°40' W 009°23'0 0.0
2018-Jun-15 21:00N 38°40' W 009°23'0 0.0
2018-Jun-15 20:27N 38°40' W 009°23'0 0.0
2018-Jun-15 20:00N 38°40' W 009°23'0 0.0
2018-Jun-15 19:30N 38°40' W 009°23'0 0.0
2018-Jun-15 19:00N 38°40' W 009°23'0 0.0
2018-Jun-15 18:30N 38°40' W 009°23'0 0.0
2018-Jun-15 18:00N 38°40' W 009°23'0 0.1
2018-Jun-15 17:30N 38°40' W 009°23'0 0.0
2018-Jun-15 16:51N 38°40' W 009°23'0 0.0
2018-Jun-15 16:30N 38°40' W 009°23'0 0.0
2018-Jun-15 16:00N 38°40' W 009°23'0 0.0
2018-Jun-15 15:30N 38°40' W 009°23'0 0.0
2018-Jun-15 15:00N 38°40' W 009°23'0 0.0
2018-Jun-15 14:30N 38°40' W 009°23'0 0.0
2018-Jun-15 14:00N 38°40' W 009°23'0 0.0
2018-Jun-15 13:30N 38°40' W 009°23'0 0.0
2018-Jun-15 13:00N 38°40' W 009°23'0 0.0
2018-Jun-15 12:30N 38°40' W 009°23'0 0.0
2018-Jun-15 12:00N 38°40' W 009°23'0 0.0
2018-Jun-15 11:30N 38°40' W 009°23'0 0.0
2018-Jun-15 11:00N 38°40' W 009°23'0 0.0
2018-Jun-15 10:30N 38°40' W 009°23'0 0.0
2018-Jun-15 10:00N 38°40' W 009°23'0 0.0
2018-Jun-15 09:30N 38°40' W 009°23'0 0.1
2018-Jun-15 09:00N 38°40' W 009°23'0 0.0
2018-Jun-15 08:30N 38°40' W 009°23'0 0.0
2018-Jun-15 08:00N 38°40' W 009°23'0 0.1
2018-Jun-15 07:30N 38°40' W 009°23'0 0.0
2018-Jun-15 07:00N 38°40' W 009°23'0 0.0
2018-Jun-15 06:30N 38°40' W 009°23'0 0.1
2018-Jun-15 06:00N 38°40' W 009°23'0 0.0
2018-Jun-15 05:30N 38°40' W 009°23'0 0.1
2018-Jun-15 05:00N 38°40' W 009°23'0 0.0
2018-Jun-15 04:30N 38°40' W 009°23'0 0.0
2018-Jun-15 04:00N 38°40' W 009°23'0 0.0
2018-Jun-15 03:27N 38°40' W 009°23'0 0.0
2018-Jun-15 02:57N 38°40' W 009°23'0 0.2
2018-Jun-15 02:30N 38°40' W 009°23'0 0.0
2018-Jun-15 02:00N 38°40' W 009°23'0 0.1
2018-Jun-15 01:30N 38°40' W 009°23'0 0.1
2018-Jun-15 01:00N 38°40' W 009°23'0 0.1
2018-Jun-15 00:30N 38°40' W 009°23'0 0.1
2018-Jun-15 00:00N 38°40' W 009°23'0 0.0
2018-Jun-14 23:30N 38°40' W 009°23'0 0.0
2018-Jun-14 23:00N 38°40' W 009°23'0 0.1
2018-Jun-14 22:30N 38°40' W 009°23'0 0.0
2018-Jun-14 22:00N 38°40' W 009°23'0 0.0
2018-Jun-14 21:30N 38°40' W 009°23'0 0.0
2018-Jun-14 21:00N 38°40' W 009°23'0 0.0
2018-Jun-14 20:30N 38°40' W 009°23'0 0.0
2018-Jun-14 20:00N 38°40' W 009°23'0 0.0
2018-Jun-14 19:30N 38°40' W 009°23'0 0.0
2018-Jun-14 19:00N 38°40' W 009°23'0 0.0
2018-Jun-14 18:30N 38°40' W 009°23'0 0.0
2018-Jun-14 18:00N 38°40' W 009°23'0 0.0
2018-Jun-14 17:30N 38°40' W 009°23'0 0.0
2018-Jun-14 17:00N 38°40' W 009°23'0 0.0
2018-Jun-14 16:30N 38°40' W 009°23'0 0.0
2018-Jun-14 16:00N 38°40' W 009°23'0 0.0
2018-Jun-14 15:24N 38°40' W 009°23'0 0.0
2018-Jun-14 15:00N 38°40' W 009°23'0 0.0
2018-Jun-14 14:27N 38°40' W 009°23'0 0.0
2018-Jun-14 14:00N 38°40' W 009°23'0 0.0
2018-Jun-14 13:30N 38°40' W 009°23'0 0.0
2018-Jun-14 13:00N 38°40' W 009°23'0 0.0
2018-Jun-14 12:30N 38°40' W 009°23'0 0.0
2018-Jun-14 12:00N 38°40' W 009°23'0 0.0
2018-Jun-14 11:30N 38°40' W 009°23'0 0.0
2018-Jun-14 11:00N 38°40' W 009°23'0 0.0
2018-Jun-14 10:30N 38°40' W 009°23'0 0.0
2018-Jun-14 10:00N 38°40' W 009°23'0 0.1
2018-Jun-14 09:30N 38°40' W 009°23'0 0.0
2018-Jun-14 09:00N 38°40' W 009°23'0 0.0
2018-Jun-14 08:30N 38°40' W 009°23'0 0.0
2018-Jun-14 08:00N 38°40' W 009°23'0 0.0
2018-Jun-14 07:30N 38°40' W 009°23'0 0.0
2018-Jun-14 07:00N 38°40' W 009°23'0 0.0
2018-Jun-14 06:30N 38°40' W 009°23'0 0.0
2018-Jun-14 06:00N 38°40' W 009°23'0 0.0
2018-Jun-14 05:30N 38°40' W 009°23'0 0.1
2018-Jun-14 05:00N 38°40' W 009°23'0 0.1
2018-Jun-14 04:30N 38°40' W 009°23'0 0.0
2018-Jun-14 04:00N 38°40' W 009°23'0 0.0
2018-Jun-14 03:30N 38°40' W 009°23'0 0.0
2018-Jun-14 03:00N 38°40' W 009°23'0 0.0
2018-Jun-14 02:30N 38°40' W 009°23'0 0.0
2018-Jun-14 02:00N 38°40' W 009°23'0 0.0
2018-Jun-14 01:30N 38°40' W 009°23'0 0.0
2018-Jun-14 01:00N 38°40' W 009°23'0 0.1
2018-Jun-14 00:27N 38°40' W 009°23'0 0.0
2018-Jun-14 00:00N 38°40' W 009°23'0 0.0
2018-Jun-13 23:30N 38°40' W 009°23'0 0.0
2018-Jun-13 23:00N 38°40' W 009°23'0 0.0
2018-Jun-13 22:30N 38°40' W 009°23'0 0.1
2018-Jun-13 22:00N 38°40' W 009°23'0 0.0
2018-Jun-13 21:30N 38°40' W 009°23'0 0.0
2018-Jun-13 21:00N 38°40' W 009°23'0 0.0
2018-Jun-13 20:30N 38°40' W 009°23'0 0.0
2018-Jun-13 20:00N 38°40' W 009°23'0 0.0
2018-Jun-13 19:30N 38°40' W 009°23'0 0.1
2018-Jun-13 19:00N 38°40' W 009°23'0 0.0
2018-Jun-13 18:30N 38°40' W 009°23'0 0.0
2018-Jun-13 18:00N 38°40' W 009°23'0 0.0
2018-Jun-13 17:24N 38°40' W 009°23'0 0.0
2018-Jun-13 17:00N 38°40' W 009°23'0 0.0
2018-Jun-13 16:30N 38°40' W 009°23'0 0.0
2018-Jun-13 16:00N 38°40' W 009°23'0 0.0
2018-Jun-13 15:27N 38°40' W 009°23'0 0.0
2018-Jun-13 15:00N 38°40' W 009°23'0 0.0
2018-Jun-13 14:30N 38°40' W 009°23'0 0.0
2018-Jun-13 14:00N 38°40' W 009°23'0 0.1
2018-Jun-13 13:30N 38°40' W 009°23'0 0.1
2018-Jun-13 13:00N 38°40' W 009°23'0 0.0
2018-Jun-13 12:30N 38°40' W 009°23'0 0.0
2018-Jun-13 12:00N 38°40' W 009°23'0 0.0
2018-Jun-13 11:30N 38°40' W 009°23'0 0.1
2018-Jun-13 11:00N 38°40' W 009°23'0 0.0
2018-Jun-13 10:30N 38°40' W 009°23'0 0.0
2018-Jun-13 10:00N 38°40' W 009°23'0 0.0
2018-Jun-13 09:30N 38°40' W 009°23'0 0.0
2018-Jun-13 09:00N 38°40' W 009°23'0 0.0
2018-Jun-13 08:30N 38°40' W 009°23'0 0.0
2018-Jun-13 08:00N 38°40' W 009°23'0 0.0
2018-Jun-13 07:30N 38°40' W 009°23'0 0.1
2018-Jun-13 07:00N 38°40' W 009°23'0 0.0
2018-Jun-13 06:30N 38°40' W 009°23'0 0.0
2018-Jun-13 06:00N 38°40' W 009°23'0 0.0
2018-Jun-13 05:30N 38°40' W 009°23'0 0.0
2018-Jun-13 04:57N 38°40' W 009°23'0 0.0
2018-Jun-13 04:30N 38°40' W 009°23'0 0.1
2018-Jun-13 04:00N 38°40' W 009°23'0 0.0
2018-Jun-13 03:30N 38°40' W 009°23'0 0.0
2018-Jun-13 03:00N 38°40' W 009°23'0 0.0
2018-Jun-13 02:30N 38°40' W 009°23'0 0.0
2018-Jun-13 02:00N 38°40' W 009°23'0 0.0
2018-Jun-13 01:30N 38°40' W 009°23'0 0.0
2018-Jun-13 00:57N 38°40' W 009°23'0 0.0
2018-Jun-13 00:30N 38°40' W 009°23'0 0.1
2018-Jun-13 00:00N 38°40' W 009°23'0 0.0
2018-Jun-12 23:27N 38°40' W 009°23'0 0.0
2018-Jun-12 23:00N 38°40' W 009°23'0 0.0
2018-Jun-12 22:30N 38°40' W 009°23'0 0.0
2018-Jun-12 22:00N 38°40' W 009°23'0 0.0
2018-Jun-12 21:30N 38°40' W 009°23'0 0.0
2018-Jun-12 21:00N 38°40' W 009°23'0 0.0
2018-Jun-12 20:30N 38°40' W 009°23'0 0.0
2018-Jun-12 20:00N 38°40' W 009°23'0 0.0
2018-Jun-12 19:30N 38°40' W 009°23'0 0.0
2018-Jun-12 19:00N 38°40' W 009°23'0 0.0
2018-Jun-12 18:30N 38°40' W 009°23'0 0.0
2018-Jun-12 18:00N 38°40' W 009°23'0 0.0
2018-Jun-12 17:30N 38°40' W 009°23'0 0.0
2018-Jun-12 17:00N 38°40' W 009°23'0 0.0
2018-Jun-12 16:30N 38°40' W 009°23'0 0.0
2018-Jun-12 16:00N 38°40' W 009°23'0 0.0
2018-Jun-12 15:30N 38°40' W 009°23'0 0.0
2018-Jun-12 15:00N 38°40' W 009°23'0 0.1
2018-Jun-12 14:30N 38°40' W 009°23'0 0.0
2018-Jun-12 14:00N 38°40' W 009°23'0 0.0
2018-Jun-12 13:30N 38°40' W 009°23'0 0.0
2018-Jun-12 13:00N 38°40' W 009°23'0 0.0
2018-Jun-12 12:30N 38°40' W 009°23'0 0.1
2018-Jun-12 12:00N 38°40' W 009°23'0 0.6
2018-Jun-12 11:30N 38°40' W 009°24'1 1.4
2018-Jun-12 11:00N 38°39' W 009°24'1 1.5
2018-Jun-12 10:30N 38°39' W 009°25'0 0.5
2018-Jun-12 10:00N 38°39' W 009°25'1 2.2
2018-Jun-12 09:30N 38°38' W 009°26'0 0.4
2018-Jun-12 09:00N 38°38' W 009°26'5 9.9
2018-Jun-12 08:30N 38°36' W 009°32'5 9.9
2018-Jun-12 07:58N 38°36' W 009°39'5 9.9
2018-Jun-12 07:29N 38°36' W 009°45'5 9.9
2018-Jun-12 07:00N 38°35' W 009°51'5 9.7
2018-Jun-12 06:30N 38°35' W 009°57'5 9.5
2018-Jun-12 06:00N 38°36' W 010°03'5 9.9
2018-Jun-12 05:29N 38°40' W 010°07'1310.7
2018-Jun-12 04:17N 38°53' W 010°08'310.6
2018-Jun-12 04:00N 38°56' W 010°08'510.5
2018-Jun-12 03:30N 39°01' W 010°08'510.1
2018-Jun-12 03:00N 39°06' W 010°08'  
Track history (hours):
 
Tides and Currents Weather Stations Pressure Air Temp Water Temp Dewpoint Dewpoint Depression Visibility Wind Speed Wind Dir Waves Ship Positions

Tinsdal

Last reported at 2018-Jun-21 04:05 UTC. Time now 2018-Jun-23 10:05 UTC.
Position N 39°35' W 009°37'.

Length 90 m; draft 3.9 m.

Type: Ship. MMSI: 305573000.

Date/timePositionNaut miles runAvg speedWind from/ knotsBaromVisibWave heightAir tempDewpointWater temp
2018-Jun-21 04:05N 39°35' W 009°37'310.1
2018-Jun-21 03:50N 39°33' W 009°40'17 9.6
2018-Jun-21 02:03N 39°16' W 009°46'210.0
2018-Jun-21 01:50N 39°14' W 009°47'310.1
2018-Jun-21 01:30N 39°11' W 009°47'5 9.9
2018-Jun-21 01:00N 39°06' W 009°48'5 9.6
2018-Jun-21 00:30N 39°01' W 009°49'5 9.7
2018-Jun-21 00:00N 38°57' W 009°50'510.0
2018-Jun-20 23:30N 38°52' W 009°51'5 9.9
2018-Jun-20 23:00N 38°47' W 009°51'5 9.9
2018-Jun-20 22:30N 38°42' W 009°51'5 9.6
2018-Jun-20 22:00N 38°37' W 009°48'5 9.1
2018-Jun-20 21:30N 38°36' W 009°43'5 9.9
2018-Jun-20 21:00N 38°36' W 009°37'510.4
2018-Jun-20 20:30N 38°36' W 009°30'5 9.9
2018-Jun-20 20:00N 38°39' W 009°24'2 3.2
2018-Jun-20 19:28N 38°40' W 009°24'0 0.2
2018-Jun-20 18:58N 38°40' W 009°23'0 0.1
2018-Jun-20 18:28N 38°40' W 009°23'0 0.0
2018-Jun-20 17:58N 38°40' W 009°23'0 0.0
2018-Jun-20 17:28N 38°40' W 009°23'0 0.1
2018-Jun-20 16:58N 38°40' W 009°23'0 0.0
2018-Jun-20 16:28N 38°40' W 009°23'0 0.0
2018-Jun-20 15:58N 38°40' W 009°23'0 0.0
2018-Jun-20 15:28N 38°40' W 009°23'0 0.0
2018-Jun-20 14:58N 38°40' W 009°23'0 0.0
2018-Jun-20 14:28N 38°40' W 009°23'0 0.1
2018-Jun-20 13:58N 38°40' W 009°23'0 0.1
2018-Jun-20 13:28N 38°40' W 009°23'0 0.1
2018-Jun-20 12:58N 38°40' W 009°23'0 0.0
2018-Jun-20 12:28N 38°40' W 009°23'0 0.0
2018-Jun-20 11:58N 38°40' W 009°23'0 0.1
2018-Jun-20 11:28N 38°40' W 009°23'0 0.0
2018-Jun-20 10:58N 38°40' W 009°24'0 0.1
2018-Jun-20 10:28N 38°40' W 009°23'0 0.0
2018-Jun-20 09:58N 38°40' W 009°23'0 0.0
2018-Jun-20 09:28N 38°40' W 009°23'0 0.0
2018-Jun-20 08:58N 38°40' W 009°23'0 0.0
2018-Jun-20 08:28N 38°40' W 009°23'0 0.1
2018-Jun-20 07:58N 38°40' W 009°23'0 0.4
2018-Jun-20 07:31N 38°40' W 009°23'3 5.9
2018-Jun-20 07:00N 38°37' W 009°22'5 9.7
2018-Jun-20 06:30N 38°41' W 009°18'4 7.8
2018-Jun-20 06:00N 38°41' W 009°13'4 8.9
2018-Jun-20 05:30N 38°41' W 009°07'2 1.4
2018-Jun-20 03:45N 38°40' W 009°04'0 0.0
2018-Jun-20 02:33N 38°40' W 009°04'0 0.0
2018-Jun-20 01:27N 38°40' W 009°04'0 0.0
2018-Jun-19 22:48N 38°40' W 009°04'0 0.0
2018-Jun-19 16:36N 38°40' W 009°04'0 0.0
2018-Jun-19 16:24N 38°40' W 009°04'0 0.0
2018-Jun-19 15:54N 38°40' W 009°04'0 0.0
2018-Jun-19 13:36N 38°40' W 009°04'0 0.0
2018-Jun-19 13:24N 38°40' W 009°04'0 0.0
2018-Jun-19 06:48N 38°40' W 009°04'0 0.0
2018-Jun-19 06:20N 38°40' W 009°04'0 1.1
2018-Jun-19 06:00N 38°40' W 009°05'3 5.9
2018-Jun-19 05:30N 38°41' W 009°08'510.6
2018-Jun-19 05:00N 38°41' W 009°15'611.7
2018-Jun-19 04:31N 38°38' W 009°21'3 5.1
2018-Jun-19 04:01N 38°38' W 009°25'3 4.9
2018-Jun-19 03:30N 38°40' W 009°24'0 0.2
2018-Jun-19 03:00N 38°40' W 009°23'0 0.1
2018-Jun-19 02:30N 38°40' W 009°24'0 0.0
2018-Jun-19 02:00N 38°40' W 009°24'0 0.0
2018-Jun-19 01:30N 38°40' W 009°24'0 0.0
2018-Jun-19 01:00N 38°40' W 009°24'0 0.0
2018-Jun-19 00:30N 38°40' W 009°24'0 0.0
2018-Jun-19 00:00N 38°40' W 009°24'0 0.0
2018-Jun-18 23:30N 38°40' W 009°24'0 0.0
2018-Jun-18 22:57N 38°40' W 009°24'0 0.0
2018-Jun-18 22:27N 38°40' W 009°24'0 0.0
2018-Jun-18 21:54N 38°40' W 009°24'0 0.1
2018-Jun-18 21:27N 38°40' W 009°24'0 0.1
2018-Jun-18 21:00N 38°40' W 009°24'0 0.2
2018-Jun-18 20:30N 38°40' W 009°23'0 0.1
2018-Jun-18 20:00N 38°40' W 009°23'0 0.0
2018-Jun-18 19:30N 38°40' W 009°23'0 0.0
2018-Jun-18 19:00N 38°40' W 009°23'0 0.0
2018-Jun-18 18:30N 38°40' W 009°23'0 0.0
2018-Jun-18 18:00N 38°40' W 009°23'0 0.0
2018-Jun-18 17:30N 38°40' W 009°23'0 0.0
2018-Jun-18 17:00N 38°40' W 009°23'0 0.0
2018-Jun-18 16:30N 38°40' W 009°23'0 0.0
2018-Jun-18 16:00N 38°40' W 009°23'0 0.0
2018-Jun-18 15:30N 38°40' W 009°23'0 0.0
2018-Jun-18 15:00N 38°40' W 009°23'0 0.0
2018-Jun-18 14:30N 38°40' W 009°23'0 0.0
2018-Jun-18 14:00N 38°40' W 009°23'0 0.0
2018-Jun-18 13:30N 38°40' W 009°23'0 0.0
2018-Jun-18 13:00N 38°40' W 009°23'0 0.0
2018-Jun-18 12:30N 38°40' W 009°23'0 0.1
2018-Jun-18 12:00N 38°40' W 009°24'0 0.1
2018-Jun-18 11:30N 38°40' W 009°24'0 0.1
2018-Jun-18 11:00N 38°40' W 009°24'0 0.0
2018-Jun-18 10:30N 38°40' W 009°24'0 0.0
2018-Jun-18 10:00N 38°40' W 009°24'0 0.1
2018-Jun-18 09:30N 38°40' W 009°23'0 0.0
2018-Jun-18 08:57N 38°40' W 009°23'0 0.1
2018-Jun-18 08:30N 38°40' W 009°23'0 0.0
2018-Jun-18 08:00N 38°40' W 009°23'0 0.0
2018-Jun-18 07:30N 38°40' W 009°23'0 0.0
2018-Jun-18 07:00N 38°40' W 009°23'0 0.0
2018-Jun-18 06:30N 38°40' W 009°23'0 0.0
2018-Jun-18 06:00N 38°40' W 009°23'0 0.0
2018-Jun-18 05:30N 38°40' W 009°23'0 0.0
2018-Jun-18 05:00N 38°40' W 009°23'0 0.0
2018-Jun-18 04:30N 38°40' W 009°23'0 0.0
2018-Jun-18 04:00N 38°40' W 009°23'0 0.0
2018-Jun-18 03:30N 38°40' W 009°24'0 0.1
2018-Jun-18 03:00N 38°40' W 009°24'0 0.0
2018-Jun-18 02:30N 38°40' W 009°24'0 0.0
2018-Jun-18 02:00N 38°40' W 009°24'0 0.0
2018-Jun-18 01:30N 38°40' W 009°24'0 0.1
2018-Jun-18 01:00N 38°40' W 009°24'0 0.0
2018-Jun-18 00:30N 38°40' W 009°24'0 0.0
2018-Jun-18 00:00N 38°40' W 009°24'0 0.0
2018-Jun-17 23:30N 38°40' W 009°24'0 0.0
2018-Jun-17 23:00N 38°40' W 009°24'0 0.0
2018-Jun-17 22:30N 38°40' W 009°24'0 0.0
2018-Jun-17 22:00N 38°40' W 009°24'0 0.0
2018-Jun-17 21:30N 38°40' W 009°24'0 0.0
2018-Jun-17 21:00N 38°40' W 009°24'0 0.0
2018-Jun-17 20:30N 38°40' W 009°24'0 0.0
2018-Jun-17 20:00N 38°40' W 009°24'0 0.0
2018-Jun-17 19:30N 38°40' W 009°24'0 0.0
2018-Jun-17 19:00N 38°40' W 009°23'0 0.1
2018-Jun-17 18:30N 38°40' W 009°23'0 0.2
2018-Jun-17 18:00N 38°40' W 009°23'0 0.0
2018-Jun-17 17:30N 38°40' W 009°23'0 0.0
2018-Jun-17 17:00N 38°40' W 009°23'0 0.0
2018-Jun-17 16:30N 38°40' W 009°23'0 0.0
2018-Jun-17 15:57N 38°40' W 009°23'0 0.0
2018-Jun-17 15:30N 38°40' W 009°23'0 0.0
2018-Jun-17 15:00N 38°40' W 009°23'0 0.0
2018-Jun-17 14:30N 38°40' W 009°23'0 0.1
2018-Jun-17 14:00N 38°40' W 009°23'0 0.0
2018-Jun-17 13:30N 38°40' W 009°23'0 0.0
2018-Jun-17 12:57N 38°40' W 009°23'0 0.0
2018-Jun-17 12:30N 38°40' W 009°23'0 0.0
2018-Jun-17 12:00N 38°40' W 009°23'0 0.0
2018-Jun-17 11:30N 38°40' W 009°23'0 0.0
2018-Jun-17 11:00N 38°40' W 009°23'0 0.0
2018-Jun-17 10:30N 38°40' W 009°23'0 0.0
2018-Jun-17 10:00N 38°40' W 009°23'0 0.0
2018-Jun-17 09:27N 38°40' W 009°23'0 0.0
2018-Jun-17 09:00N 38°40' W 009°23'0 0.0
2018-Jun-17 08:30N 38°40' W 009°23'0 0.0
2018-Jun-17 08:00N 38°40' W 009°23'0 0.0
2018-Jun-17 07:30N 38°40' W 009°23'0 0.0
2018-Jun-17 07:00N 38°40' W 009°23'0 0.0
2018-Jun-17 06:30N 38°40' W 009°23'0 0.0
2018-Jun-17 06:00N 38°40' W 009°23'0 0.0
2018-Jun-17 05:30N 38°40' W 009°23'0 0.0
2018-Jun-17 05:00N 38°40' W 009°23'0 0.0
2018-Jun-17 04:30N 38°40' W 009°23'0 0.1
2018-Jun-17 04:00N 38°40' W 009°23'0 0.0
2018-Jun-17 03:30N 38°40' W 009°23'0 0.0
2018-Jun-17 03:00N 38°40' W 009°23'0 0.0
2018-Jun-17 02:30N 38°40' W 009°23'0 0.1
2018-Jun-17 02:00N 38°40' W 009°23'0 0.0
2018-Jun-17 01:30N 38°40' W 009°23'0 0.0
2018-Jun-17 01:00N 38°40' W 009°23'0 0.0
2018-Jun-17 00:30N 38°40' W 009°23'0 0.0
2018-Jun-17 00:00N 38°40' W 009°23'0 0.0
2018-Jun-16 23:30N 38°40' W 009°23'0 0.0
2018-Jun-16 23:00N 38°40' W 009°23'0 0.0
2018-Jun-16 22:30N 38°40' W 009°24'0 0.0
2018-Jun-16 22:00N 38°40' W 009°24'0 0.0
2018-Jun-16 21:30N 38°40' W 009°24'0 0.0
2018-Jun-16 21:00N 38°40' W 009°24'0 0.0
2018-Jun-16 20:30N 38°40' W 009°24'0 0.0
2018-Jun-16 20:00N 38°40' W 009°24'0 0.0
2018-Jun-16 19:30N 38°40' W 009°24'0 0.0
2018-Jun-16 19:00N 38°40' W 009°23'0 0.0
2018-Jun-16 18:30N 38°40' W 009°23'0 0.0
2018-Jun-16 18:00N 38°40' W 009°23'0 0.0
2018-Jun-16 17:30N 38°40' W 009°23'0 0.0
2018-Jun-16 17:00N 38°40' W 009°23'0 0.0
2018-Jun-16 16:30N 38°40' W 009°23'0 0.0
2018-Jun-16 16:00N 38°40' W 009°23'0 0.0
2018-Jun-16 15:27N 38°40' W 009°23'0 0.0
2018-Jun-16 15:00N 38°40' W 009°23'0 0.0
2018-Jun-16 14:27N 38°40' W 009°23'0 0.0
2018-Jun-16 14:00N 38°40' W 009°23'0 0.0
2018-Jun-16 13:27N 38°40' W 009°23'0 0.0
2018-Jun-16 13:00N 38°40' W 009°23'0 0.0
2018-Jun-16 12:30N 38°40' W 009°23'0 0.0
2018-Jun-16 12:00N 38°40' W 009°23'0 0.0
2018-Jun-16 11:30N 38°40' W 009°23'0 0.0
2018-Jun-16 11:00N 38°40' W 009°23'0 0.0
2018-Jun-16 10:30N 38°40' W 009°23'0 0.0
2018-Jun-16 10:00N 38°40' W 009°23'0 0.0
2018-Jun-16 09:27N 38°40' W 009°23'0 0.0
2018-Jun-16 09:00N 38°40' W 009°23'0 0.0
2018-Jun-16 08:30N 38°40' W 009°23'0 0.0
2018-Jun-16 08:00N 38°40' W 009°23'0 0.0
2018-Jun-16 07:30N 38°40' W 009°24'0 0.0
2018-Jun-16 07:00N 38°40' W 009°23'0 0.0
2018-Jun-16 06:30N 38°40' W 009°23'0 0.0
2018-Jun-16 06:00N 38°40' W 009°23'0 0.0
2018-Jun-16 05:30N 38°40' W 009°23'0 0.0
2018-Jun-16 05:00N 38°40' W 009°23'0 0.0
2018-Jun-16 04:30N 38°40' W 009°23'0 0.0
2018-Jun-16 04:00N 38°40' W 009°23'0 0.0
2018-Jun-16 03:30N 38°40' W 009°23'0 0.0
2018-Jun-16 03:00N 38°40' W 009°23'0 0.0
2018-Jun-16 02:30N 38°40' W 009°23'0 0.1
2018-Jun-16 02:00N 38°40' W 009°23'0 0.0
2018-Jun-16 01:30N 38°40' W 009°23'0 0.0
2018-Jun-16 01:00N 38°40' W 009°23'0 0.0
2018-Jun-16 00:27N 38°40' W 009°23'0 0.0
2018-Jun-16 00:00N 38°40' W 009°23'0 0.0
2018-Jun-15 23:30N 38°40' W 009°23'0 0.0
2018-Jun-15 22:57N 38°40' W 009°23'0 0.0
2018-Jun-15 22:30N 38°40' W 009°23'0 0.0
2018-Jun-15 22:00N 38°40' W 009°23'0 0.0
2018-Jun-15 21:30N 38°40' W 009°23'0 0.0
2018-Jun-15 21:00N 38°40' W 009°23'0 0.0
2018-Jun-15 20:27N 38°40' W 009°23'0 0.0
2018-Jun-15 20:00N 38°40' W 009°23'0 0.0
2018-Jun-15 19:30N 38°40' W 009°23'0 0.0
2018-Jun-15 19:00N 38°40' W 009°23'0 0.0
2018-Jun-15 18:30N 38°40' W 009°23'0 0.0
2018-Jun-15 18:00N 38°40' W 009°23'0 0.1
2018-Jun-15 17:30N 38°40' W 009°23'0 0.0
2018-Jun-15 16:51N 38°40' W 009°23'0 0.0
2018-Jun-15 16:30N 38°40' W 009°23'0 0.0
2018-Jun-15 16:00N 38°40' W 009°23'0 0.0
2018-Jun-15 15:30N 38°40' W 009°23'0 0.0
2018-Jun-15 15:00N 38°40' W 009°23'0 0.0
2018-Jun-15 14:30N 38°40' W 009°23'0 0.0
2018-Jun-15 14:00N 38°40' W 009°23'0 0.0
2018-Jun-15 13:30N 38°40' W 009°23'0 0.0
2018-Jun-15 13:00N 38°40' W 009°23'0 0.0
2018-Jun-15 12:30N 38°40' W 009°23'0 0.0
2018-Jun-15 12:00N 38°40' W 009°23'0 0.0
2018-Jun-15 11:30N 38°40' W 009°23'0 0.0
2018-Jun-15 11:00N 38°40' W 009°23'0 0.0
2018-Jun-15 10:30N 38°40' W 009°23'0 0.0
2018-Jun-15 10:00N 38°40' W 009°23'0 0.0
2018-Jun-15 09:30N 38°40' W 009°23'0 0.1
2018-Jun-15 09:00N 38°40' W 009°23'0 0.0
2018-Jun-15 08:30N 38°40' W 009°23'0 0.0
2018-Jun-15 08:00N 38°40' W 009°23'0 0.1
2018-Jun-15 07:30N 38°40' W 009°23'0 0.0
2018-Jun-15 07:00N 38°40' W 009°23'0 0.0
2018-Jun-15 06:30N 38°40' W 009°23'0 0.1
2018-Jun-15 06:00N 38°40' W 009°23'0 0.0
2018-Jun-15 05:30N 38°40' W 009°23'0 0.1
2018-Jun-15 05:00N 38°40' W 009°23'0 0.0
2018-Jun-15 04:30N 38°40' W 009°23'0 0.0
2018-Jun-15 04:00N 38°40' W 009°23'0 0.0
2018-Jun-15 03:27N 38°40' W 009°23'0 0.0
2018-Jun-15 02:57N 38°40' W 009°23'0 0.2
2018-Jun-15 02:30N 38°40' W 009°23'0 0.0
2018-Jun-15 02:00N 38°40' W 009°23'0 0.1
2018-Jun-15 01:30N 38°40' W 009°23'0 0.1
2018-Jun-15 01:00N 38°40' W 009°23'0 0.1
2018-Jun-15 00:30N 38°40' W 009°23'0 0.1
2018-Jun-15 00:00N 38°40' W 009°23'0 0.0
2018-Jun-14 23:30N 38°40' W 009°23'0 0.0
2018-Jun-14 23:00N 38°40' W 009°23'0 0.1
2018-Jun-14 22:30N 38°40' W 009°23'0 0.0
2018-Jun-14 22:00N 38°40' W 009°23'0 0.0
2018-Jun-14 21:30N 38°40' W 009°23'0 0.0
2018-Jun-14 21:00N 38°40' W 009°23'0 0.0
2018-Jun-14 20:30N 38°40' W 009°23'0 0.0
2018-Jun-14 20:00N 38°40' W 009°23'0 0.0
2018-Jun-14 19:30N 38°40' W 009°23'0 0.0
2018-Jun-14 19:00N 38°40' W 009°23'0 0.0
2018-Jun-14 18:30N 38°40' W 009°23'0 0.0
2018-Jun-14 18:00N 38°40' W 009°23'0 0.0
2018-Jun-14 17:30N 38°40' W 009°23'0 0.0
2018-Jun-14 17:00N 38°40' W 009°23'0 0.0
2018-Jun-14 16:30N 38°40' W 009°23'0 0.0
2018-Jun-14 16:00N 38°40' W 009°23'0 0.0
2018-Jun-14 15:24N 38°40' W 009°23'0 0.0
2018-Jun-14 15:00N 38°40' W 009°23'0 0.0
2018-Jun-14 14:27N 38°40' W 009°23'0 0.0
2018-Jun-14 14:00N 38°40' W 009°23'0 0.0
2018-Jun-14 13:30N 38°40' W 009°23'0 0.0
2018-Jun-14 13:00N 38°40' W 009°23'0 0.0
2018-Jun-14 12:30N 38°40' W 009°23'0 0.0
2018-Jun-14 12:00N 38°40' W 009°23'0 0.0
2018-Jun-14 11:30N 38°40' W 009°23'0 0.0
2018-Jun-14 11:00N 38°40' W 009°23'0 0.0
2018-Jun-14 10:30N 38°40' W 009°23'0 0.0
2018-Jun-14 10:00N 38°40' W 009°23'0 0.1
2018-Jun-14 09:30N 38°40' W 009°23'0 0.0
2018-Jun-14 09:00N 38°40' W 009°23'0 0.0
2018-Jun-14 08:30N 38°40' W 009°23'0 0.0
2018-Jun-14 08:00N 38°40' W 009°23'0 0.0
2018-Jun-14 07:30N 38°40' W 009°23'0 0.0
2018-Jun-14 07:00N 38°40' W 009°23'0 0.0
2018-Jun-14 06:30N 38°40' W 009°23'0 0.0
2018-Jun-14 06:00N 38°40' W 009°23'0 0.0
2018-Jun-14 05:30N 38°40' W 009°23'0 0.1
2018-Jun-14 05:00N 38°40' W 009°23'0 0.1
2018-Jun-14 04:30N 38°40' W 009°23'0 0.0
2018-Jun-14 04:00N 38°40' W 009°23'0 0.0
2018-Jun-14 03:30N 38°40' W 009°23'0 0.0
2018-Jun-14 03:00N 38°40' W 009°23'0 0.0
2018-Jun-14 02:30N 38°40' W 009°23'0 0.0
2018-Jun-14 02:00N 38°40' W 009°23'0 0.0
2018-Jun-14 01:30N 38°40' W 009°23'0 0.0
2018-Jun-14 01:00N 38°40' W 009°23'0 0.1
2018-Jun-14 00:27N 38°40' W 009°23'0 0.0
2018-Jun-14 00:00N 38°40' W 009°23'0 0.0
2018-Jun-13 23:30N 38°40' W 009°23'0 0.0
2018-Jun-13 23:00N 38°40' W 009°23'0 0.0
2018-Jun-13 22:30N 38°40' W 009°23'0 0.1
2018-Jun-13 22:00N 38°40' W 009°23'0 0.0
2018-Jun-13 21:30N 38°40' W 009°23'0 0.0
2018-Jun-13 21:00N 38°40' W 009°23'0 0.0
2018-Jun-13 20:30N 38°40' W 009°23'0 0.0
2018-Jun-13 20:00N 38°40' W 009°23'0 0.0
2018-Jun-13 19:30N 38°40' W 009°23'0 0.1
2018-Jun-13 19:00N 38°40' W 009°23'0 0.0
2018-Jun-13 18:30N 38°40' W 009°23'0 0.0
2018-Jun-13 18:00N 38°40' W 009°23'0 0.0
2018-Jun-13 17:24N 38°40' W 009°23'0 0.0
2018-Jun-13 17:00N 38°40' W 009°23'0 0.0
2018-Jun-13 16:30N 38°40' W 009°23'0 0.0
2018-Jun-13 16:00N 38°40' W 009°23'0 0.0
2018-Jun-13 15:27N 38°40' W 009°23'0 0.0
2018-Jun-13 15:00N 38°40' W 009°23'0 0.0
2018-Jun-13 14:30N 38°40' W 009°23'0 0.0
2018-Jun-13 14:00N 38°40' W 009°23'0 0.1
2018-Jun-13 13:30N 38°40' W 009°23'0 0.1
2018-Jun-13 13:00N 38°40' W 009°23'0 0.0
2018-Jun-13 12:30N 38°40' W 009°23'0 0.0
2018-Jun-13 12:00N 38°40' W 009°23'0 0.0
2018-Jun-13 11:30N 38°40' W 009°23'0 0.1
2018-Jun-13 11:00N 38°40' W 009°23'0 0.0
2018-Jun-13 10:30N 38°40' W 009°23'0 0.0
2018-Jun-13 10:00N 38°40' W 009°23'0 0.0
2018-Jun-13 09:30N 38°40' W 009°23'0 0.0
2018-Jun-13 09:00N 38°40' W 009°23'0 0.0
2018-Jun-13 08:30N 38°40' W 009°23'0 0.0
2018-Jun-13 08:00N 38°40' W 009°23'0 0.0
2018-Jun-13 07:30N 38°40' W 009°23'0 0.1
2018-Jun-13 07:00N 38°40' W 009°23'0 0.0
2018-Jun-13 06:30N 38°40' W 009°23'0 0.0
2018-Jun-13 06:00N 38°40' W 009°23'0 0.0
2018-Jun-13 05:30N 38°40' W 009°23'0 0.0
2018-Jun-13 04:57N 38°40' W 009°23'0 0.0
2018-Jun-13 04:30N 38°40' W 009°23'0 0.1
2018-Jun-13 04:00N 38°40' W 009°23'0 0.0
2018-Jun-13 03:30N 38°40' W 009°23'0 0.0
2018-Jun-13 03:00N 38°40' W 009°23'0 0.0
2018-Jun-13 02:30N 38°40' W 009°23'0 0.0
2018-Jun-13 02:00N 38°40' W 009°23'0 0.0
2018-Jun-13 01:30N 38°40' W 009°23'0 0.0
2018-Jun-13 00:57N 38°40' W 009°23'0 0.0
2018-Jun-13 00:30N 38°40' W 009°23'0 0.1
2018-Jun-13 00:00N 38°40' W 009°23'0 0.0
2018-Jun-12 23:27N 38°40' W 009°23'0 0.0
2018-Jun-12 23:00N 38°40' W 009°23'0 0.0
2018-Jun-12 22:30N 38°40' W 009°23'0 0.0
2018-Jun-12 22:00N 38°40' W 009°23'0 0.0
2018-Jun-12 21:30N 38°40' W 009°23'0 0.0
2018-Jun-12 21:00N 38°40' W 009°23'0 0.0
2018-Jun-12 20:30N 38°40' W 009°23'0 0.0
2018-Jun-12 20:00N 38°40' W 009°23'0 0.0
2018-Jun-12 19:30N 38°40' W 009°23'0 0.0
2018-Jun-12 19:00N 38°40' W 009°23'0 0.0
2018-Jun-12 18:30N 38°40' W 009°23'0 0.0
2018-Jun-12 18:00N 38°40' W 009°23'0 0.0
2018-Jun-12 17:30N 38°40' W 009°23'0 0.0
2018-Jun-12 17:00N 38°40' W 009°23'0 0.0
2018-Jun-12 16:30N 38°40' W 009°23'0 0.0
2018-Jun-12 16:00N 38°40' W 009°23'0 0.0
2018-Jun-12 15:30N 38°40' W 009°23'0 0.0
2018-Jun-12 15:00N 38°40' W 009°23'0 0.1
2018-Jun-12 14:30N 38°40' W 009°23'0 0.0
2018-Jun-12 14:00N 38°40' W 009°23'0 0.0
2018-Jun-12 13:30N 38°40' W 009°23'0 0.0
2018-Jun-12 13:00N 38°40' W 009°23'0 0.0
2018-Jun-12 12:30N 38°40' W 009°23'0 0.1
2018-Jun-12 12:00N 38°40' W 009°23'0 0.6
2018-Jun-12 11:30N 38°40' W 009°24'1 1.4
2018-Jun-12 11:00N 38°39' W 009°24'1 1.5
2018-Jun-12 10:30N 38°39' W 009°25'0 0.5
2018-Jun-12 10:00N 38°39' W 009°25'1 2.2
2018-Jun-12 09:30N 38°38' W 009°26'0 0.4
2018-Jun-12 09:00N 38°38' W 009°26'5 9.9
2018-Jun-12 08:30N 38°36' W 009°32'5 9.9
2018-Jun-12 07:58N 38°36' W 009°39'5 9.9
2018-Jun-12 07:29N 38°36' W 009°45'5 9.9
2018-Jun-12 07:00N 38°35' W 009°51'5 9.7
2018-Jun-12 06:30N 38°35' W 009°57'5 9.5
2018-Jun-12 06:00N 38°36' W 010°03'5 9.9
2018-Jun-12 05:29N 38°40' W 010°07'1310.7
2018-Jun-12 04:17N 38°53' W 010°08'310.6
2018-Jun-12 04:00N 38°56' W 010°08'510.5
2018-Jun-12 03:30N 39°01' W 010°08'510.1
2018-Jun-12 03:00N 39°06' W 010°08'  

Dump ship's entire track history